Rock Springs, Arizona
Current Conditions -  °F | °C
As of 1:53 AM on Thursday 18 Dec 2014 (Local Time) from KDVT Reporting Station
Broken Clouds Broken Clouds  
Wind Chill: 47°   Ceiling: 2600
Heat Index: 49°   Visibility: 10mi
Dew Point: 46°   Wind: 5mph
Humidity: 90%   Direction: 110°ESE
Pressure: 30.1"   Gusts: NA
Location:  34.1207°N, 112.159°W
Report Text: KDVT 180853Z AUTO 11004KT 10SM BKN026 09/08 A3010 RMK AO2 SLP186 T00940078 58007
Loading
Personal Weather Stations






























Interactive Weather Map New forecast layout! Learn more

10-Day Weather Forecast

Advertisements
Track Severe Weather on mobile